Time;durP1;ratioP1;P1;durP2;ratioP2;P2;SDS_P1;SDS_P2;PMS_P1;PMS_P2;Temp;Humidity;BMP_temperature;BMP_pressure;BME280_temperature;BME280_humidity;BME280_pressure;Samples;Min_cycle;Max_cycle;Signal;HPM_P1;HPM_P2
2023/06/13 00:01:48;;;;;;;7.60;6.90;;;20.70;64.40;;;;;;4953762;28;20499;-59
2023/06/13 00:04:21;;;;;;;8.27;7.17;;;20.70;63.80;;;;;;4955778;28;20189;-59
2023/06/13 00:06:50;;;;;;;8.40;7.43;;;20.60;63.40;;;;;;4954935;28;20516;-59
2023/06/13 00:09:18;;;;;;;8.60;7.90;;;20.60;62.50;;;;;;4956497;28;20420;-60
2023/06/13 00:11:45;;;;;;;7.33;6.83;;;20.60;63.00;;;;;;4954814;29;20854;-59
2023/06/13 00:14:11;;;;;;;7.53;7.03;;;20.60;62.20;;;;;;4956714;28;20556;-59
2023/06/13 00:16:38;;;;;;;7.70;7.10;;;20.60;62.40;;;;;;4956433;28;20436;-59
2023/06/13 00:19:05;;;;;;;8.10;7.27;;;20.60;62.30;;;;;;4955534;28;20541;-59
2023/06/13 00:21:32;;;;;;;8.30;7.60;;;20.50;62.00;;;;;;4956048;28;20487;-59
2023/06/13 00:23:58;;;;;;;7.30;6.80;;;20.50;62.40;;;;;;4954253;28;21002;-59
2023/06/13 00:26:23;;;;;;;8.43;7.63;;;20.50;61.90;;;;;;4956231;28;20499;-59
2023/06/13 00:28:49;;;;;;;8.03;7.40;;;20.40;62.60;;;;;;4955433;28;20467;-59
2023/06/13 00:31:16;;;;;;;7.57;6.97;;;20.40;62.20;;;;;;4954959;29;20523;-59
2023/06/13 00:33:43;;;;;;;8.13;7.43;;;20.50;64.00;;;;;;4956040;28;20316;-59
2023/06/13 00:36:14;;;;;;;8.33;7.73;;;20.50;65.50;;;;;;4955666;28;20562;-59
2023/06/13 00:38:40;;;;;;;8.13;7.43;;;20.50;66.00;;;;;;4954346;29;20479;-59
2023/06/13 00:41:06;;;;;;;8.73;7.80;;;20.40;66.00;;;;;;4955122;29;20413;-59
2023/06/13 00:43:32;;;;;;;8.70;8.00;;;20.40;66.40;;;;;;4955103;29;20615;-59
2023/06/13 00:46:00;;;;;;;7.93;7.27;;;20.40;66.90;;;;;;4954960;28;20236;-59
2023/06/13 00:48:27;;;;;;;7.93;7.30;;;20.30;67.00;;;;;;4955861;28;20768;-59
2023/06/13 00:50:54;;;;;;;7.57;6.97;;;20.30;68.40;;;;;;4955061;28;20409;-59
2023/06/13 00:53:21;;;;;;;8.00;7.30;;;20.20;67.70;;;;;;4955121;28;20473;-59
2023/06/13 00:55:49;;;;;;;7.37;6.77;;;20.10;68.80;;;;;;4955057;28;20408;-59
2023/06/13 00:58:16;;;;;;;8.30;7.70;;;20.10;69.40;;;;;;4940389;29;20457;-59
2023/06/13 01:00:44;;;;;;;8.13;7.50;;;20.10;68.40;;;;;;4940990;29;20458;-59
2023/06/13 01:03:14;;;;;;;7.63;7.07;;;20.00;69.60;;;;;;4953725;28;20532;-59
2023/06/13 01:05:44;;;;;;;9.17;8.27;;;20.00;69.00;;;;;;4955550;29;20408;-60
2023/06/13 01:08:16;;;;;;;8.53;7.80;;;19.90;67.90;;;;;;4954930;28;20897;-59
2023/06/13 01:10:44;;;;;;;8.30;7.70;;;19.90;67.60;;;;;;4954742;28;20427;-59
2023/06/13 01:13:24;;;;;;;8.67;7.97;;;19.90;69.00;;;;;;4954993;28;20440;-59
2023/06/13 01:16:01;;;;;;;8.03;7.43;;;19.80;68.40;;;;;;4954387;28;20467;-59
2023/06/13 01:18:30;;;;;;;8.43;7.80;;;19.80;67.60;;;;;;4955284;29;20440;-59
2023/06/13 01:21:00;;;;;;;8.17;7.50;;;19.80;67.20;;;;;;4952041;29;20425;-59
2023/06/13 01:23:37;;;;;;;9.13;8.33;;;19.80;67.20;;;;;;4955690;28;20409;-59
2023/06/13 01:26:13;;;;;;;8.73;8.13;;;19.70;66.90;;;;;;4954126;28;20753;-59
2023/06/13 01:28:43;;;;;;;9.00;7.60;;;19.60;66.90;;;;;;4953955;29;20992;-59
2023/06/13 01:31:12;;;;;;;8.13;7.43;;;19.60;66.90;;;;;;4953661;29;20424;-59
2023/06/13 01:33:38;;;;;;;8.73;8.03;;;19.50;67.70;;;;;;4954929;29;20397;-59
2023/06/13 01:36:07;;;;;;;8.87;8.07;;;19.40;67.90;;;;;;4952904;29;20448;-59
2023/06/13 01:38:33;;;;;;;8.57;7.80;;;19.50;68.10;;;;;;4953902;29;20456;-59
2023/06/13 01:40:59;;;;;;;9.97;9.07;;;19.30;67.90;;;;;;4953997;28;20894;-59
2023/06/13 01:43:25;;;;;;;9.70;9.00;;;19.30;68.50;;;;;;4954183;29;20527;-59
2023/06/13 01:46:00;;;;;;;8.70;8.03;;;19.30;68.70;;;;;;4953904;29;20709;-59
2023/06/13 01:49:05;;;;;;;8.37;7.77;;;19.30;68.90;;;;;;4954193;28;20185;-59
2023/06/13 01:52:11;;;;;;;8.67;7.97;;;19.30;68.80;;;;;;4947716;29;20432;-59
2023/06/13 01:54:41;;;;;;;9.10;8.40;;;19.30;72.20;;;;;;4954935;29;20455;-59
2023/06/13 01:57:09;;;;;;;9.23;8.40;;;19.40;70.90;;;;;;4952585;29;20583;-59
2023/06/13 01:59:38;;;;;;;9.57;8.10;;;19.40;70.50;;;;;;4953845;28;20519;-59
2023/06/13 02:02:05;;;;;;;9.57;8.87;;;19.40;70.10;;;;;;4953781;28;20452;-59
2023/06/13 02:04:39;;;;;;;9.20;8.30;;;19.40;70.20;;;;;;4954531;28;20409;-59
2023/06/13 02:07:06;;;;;;;8.87;8.27;;;19.40;70.40;;;;;;4953707;28;20402;-59
2023/06/13 02:09:31;;;;;;;9.47;8.57;;;19.30;70.20;;;;;;4954505;28;20480;-59
2023/06/13 02:11:57;;;;;;;9.23;8.57;;;19.20;70.50;;;;;;4952758;28;20432;-59
2023/06/13 02:14:23;;;;;;;9.73;8.93;;;19.20;70.80;;;;;;4954682;29;20182;-59
2023/06/13 02:16:49;;;;;;;8.50;7.90;;;19.20;71.10;;;;;;4953998;28;20169;-59
2023/06/13 02:19:15;;;;;;;8.20;7.50;;;19.20;71.40;;;;;;4967734;28;20864;-59
2023/06/13 02:21:48;;;;;;;8.83;8.20;;;19.20;71.60;;;;;;4954152;28;20173;-59
2023/06/13 02:24:14;;;;;;;9.60;8.70;;;19.20;72.50;;;;;;4953488;28;20692;-59
2023/06/13 02:26:41;;;;;;;9.50;8.60;;;19.10;72.10;;;;;;4953359;28;20428;-59
2023/06/13 02:29:07;;;;;;;9.70;8.80;;;18.80;72.50;;;;;;4953694;28;20479;-59
2023/06/13 02:31:35;;;;;;;9.80;8.90;;;18.60;73.20;;;;;;4953508;29;20420;-59
2023/06/13 02:34:01;;;;;;;9.00;8.30;;;18.50;73.90;;;;;;4953436;28;20413;-59
2023/06/13 02:36:27;;;;;;;8.97;8.17;;;18.50;74.20;;;;;;4954388;29;20782;-59
2023/06/13 02:38:53;;;;;;;9.90;9.00;;;18.40;74.60;;;;;;4953193;29;20456;-59
2023/06/13 02:41:19;;;;;;;9.00;8.33;;;18.30;75.40;;;;;;4954166;29;20181;-59
2023/06/13 02:43:44;;;;;;;9.00;8.10;;;18.30;75.50;;;;;;4954051;28;20337;-59
2023/06/13 02:46:10;;;;;;;9.23;8.63;;;18.30;75.80;;;;;;4952677;29;20232;-59
2023/06/13 02:48:36;;;;;;;9.10;8.30;;;18.20;76.30;;;;;;4953559;28;20204;-59
2023/06/13 02:51:03;;;;;;;8.93;8.17;;;18.20;77.10;;;;;;4952674;29;20425;-59
2023/06/13 02:53:29;;;;;;;9.20;8.33;;;18.10;77.60;;;;;;4954140;29;20185;-59
2023/06/13 02:55:54;;;;;;;8.77;8.07;;;18.10;78.50;;;;;;4953261;29;20463;-59
2023/06/13 02:58:23;;;;;;;9.07;8.27;;;18.10;77.60;;;;;;4953870;29;20213;-59
2023/06/13 03:00:49;;;;;;;9.87;9.07;;;18.10;77.70;;;;;;4954313;28;20211;-59
2023/06/13 03:03:16;;;;;;;9.20;8.27;;;18.10;78.20;;;;;;4952176;28;20440;-59
2023/06/13 03:05:44;;;;;;;9.27;8.23;;;18.10;77.90;;;;;;4953898;28;20173;-59
2023/06/13 03:08:11;;;;;;;9.57;8.73;;;18.00;78.20;;;;;;4952156;28;20535;-58
2023/06/13 03:10:37;;;;;;;9.83;9.00;;;18.00;78.80;;;;;;4937585;28;20417;-58
2023/06/13 03:13:03;;;;;;;9.77;8.13;;;18.10;80.70;;;;;;4952998;29;20413;-58
2023/06/13 03:15:28;;;;;;;9.20;8.40;;;18.20;81.10;;;;;;4953836;29;20416;-58
2023/06/13 03:17:54;;;;;;;9.80;8.80;;;18.20;80.00;;;;;;4953320;28;20291;-58
2023/06/13 03:20:21;;;;;;;9.40;8.70;;;18.20;79.40;;;;;;4952625;28;20264;-58
2023/06/13 03:22:46;;;;;;;10.00;9.10;;;18.20;81.00;;;;;;4952540;29;20409;-58
2023/06/13 03:25:13;;;;;;;10.23;9.10;;;18.30;79.80;;;;;;4952956;29;20516;-58
2023/06/13 03:27:38;;;;;;;9.37;8.67;;;18.30;80.90;;;;;;4953558;28;20278;-58
2023/06/13 03:30:05;;;;;;;9.07;8.33;;;18.40;80.50;;;;;;4952916;29;20412;-58
2023/06/13 03:32:30;;;;;;;12.20;9.20;;;18.30;80.20;;;;;;4953677;28;20666;-58
2023/06/13 03:34:56;;;;;;;10.43;9.63;;;18.40;81.00;;;;;;4955266;29;20435;-58
2023/06/13 03:37:22;;;;;;;9.83;9.03;;;18.40;80.40;;;;;;4947935;29;20201;-58
2023/06/13 03:39:48;;;;;;;10.40;9.40;;;18.30;80.60;;;;;;4940435;29;20189;-58
2023/06/13 03:42:13;;;;;;;9.97;9.17;;;18.40;81.60;;;;;;4956911;29;20622;-58
2023/06/13 03:44:41;;;;;;;10.40;9.60;;;18.30;82.00;;;;;;4956925;29;20714;-58
2023/06/13 03:47:07;;;;;;;10.30;9.40;;;18.30;81.10;;;;;;4956771;29;20189;-58
2023/06/13 03:49:32;;;;;;;10.23;9.43;;;18.40;82.70;;;;;;4957211;29;20416;-58
2023/06/13 03:51:58;;;;;;;10.17;9.37;;;18.40;81.40;;;;;;4956350;28;20621;-58
2023/06/13 03:54:24;;;;;;;9.53;8.77;;;18.40;81.20;;;;;;4957392;29;20263;-65
2023/06/13 03:56:50;;;;;;;10.57;9.70;;;18.60;87.50;;;;;;4957061;29;20626;-61
2023/06/13 03:59:16;;;;;;;9.03;8.30;;;18.80;87.60;;;;;;4956525;28;20689;-61
2023/06/13 04:01:41;;;;;;;10.67;8.80;;;19.10;86.00;;;;;;4956854;29;20173;-61
2023/06/13 04:04:11;;;;;;;9.70;8.80;;;19.40;84.70;;;;;;4956347;29;20424;-61
2023/06/13 04:06:37;;;;;;;10.77;9.87;;;19.60;83.20;;;;;;4957296;28;20181;-61
2023/06/13 04:09:05;;;;;;;12.00;10.90;;;19.80;81.80;;;;;;4956418;28;20420;-60
2023/06/13 04:11:34;;;;;;;10.83;10.03;;;20.00;81.50;;;;;;4952750;28;20189;-61
2023/06/13 04:14:01;;;;;;;11.43;10.50;;;20.20;79.10;;;;;;4937377;29;20416;-61
2023/06/13 04:16:29;;;;;;;10.93;10.10;;;20.40;79.00;;;;;;4937597;29;20777;-61
2023/06/13 04:18:55;;;;;;;10.40;9.70;;;20.50;78.50;;;;;;4939913;29;20449;-61
2023/06/13 04:21:24;;;;;;;10.33;9.63;;;20.60;78.30;;;;;;4956746;29;20436;-59
2023/06/13 04:23:51;;;;;;;10.30;9.40;;;20.60;74.30;;;;;;4956737;28;20412;-59
2023/06/13 04:26:17;;;;;;;10.50;9.60;;;20.40;74.40;;;;;;4955849;28;20413;-59
2023/06/13 04:28:44;;;;;;;10.40;9.50;;;20.30;75.50;;;;;;4956645;28;20455;-59
2023/06/13 04:31:10;;;;;;;10.70;9.80;;;20.20;76.20;;;;;;4956308;28;20469;-59
2023/06/13 04:33:39;;;;;;;15.33;9.57;;;20.10;76.80;;;;;;4956570;28;20417;-59
2023/06/13 04:36:08;;;;;;;10.33;9.50;;;20.00;77.50;;;;;;4955590;28;20507;-59
2023/06/13 04:38:40;;;;;;;10.50;9.63;;;19.80;78.60;;;;;;4955620;28;20488;-59
2023/06/13 04:41:10;;;;;;;11.10;10.10;;;19.70;80.10;;;;;;4955759;28;20468;-59
2023/06/13 04:43:41;;;;;;;10.50;9.60;;;19.60;78.70;;;;;;4956356;28;20783;-59
2023/06/13 04:46:07;;;;;;;11.13;10.17;;;19.50;78.50;;;;;;4954884;28;20492;-59
2023/06/13 04:48:35;;;;;;;11.70;10.70;;;19.40;79.40;;;;;;4956359;28;20511;-59
2023/06/13 04:51:02;;;;;;;12.80;9.30;;;19.40;79.90;;;;;;4955301;28;20405;-59
2023/06/13 04:53:29;;;;;;;10.47;9.50;;;19.40;83.60;;;;;;4955624;28;20877;-60
2023/06/13 04:55:58;;;;;;;11.50;10.50;;;19.40;83.90;;;;;;4955979;28;20424;-59
2023/06/13 04:58:24;;;;;;;9.47;8.63;;;19.30;79.80;;;;;;4955872;28;20452;-59
2023/06/13 05:00:51;;;;;;;11.10;10.10;;;19.20;80.80;;;;;;4955677;29;20560;-59
2023/06/13 05:03:18;;;;;;;11.93;10.83;;;19.10;81.20;;;;;;4954776;28;20770;-59
2023/06/13 05:05:44;;;;;;;11.10;9.70;;;19.10;81.40;;;;;;4953845;29;20416;-59
2023/06/13 05:08:13;;;;;;;10.43;9.53;;;19.00;81.80;;;;;;4954835;29;20507;-59
2023/06/13 05:10:41;;;;;;;10.07;9.07;;;18.90;82.40;;;;;;4955472;28;20417;-59
2023/06/13 05:13:07;;;;;;;11.13;10.23;;;18.80;84.60;;;;;;4954841;29;20405;-59
2023/06/13 05:15:33;;;;;;;10.40;9.40;;;18.90;84.20;;;;;;4955793;29;20859;-59
2023/06/13 05:17:59;;;;;;;11.03;10.00;;;18.90;84.10;;;;;;4955065;29;20464;-59
2023/06/13 05:20:26;;;;;;;17.50;15.70;;;18.90;84.80;;;;;;4955688;29;20239;-59
2023/06/13 05:22:56;;;;;;;12.07;10.90;;;19.00;84.60;;;;;;4955578;28;20169;-59
2023/06/13 05:25:22;;;;;;;10.27;9.13;;;19.10;85.10;;;;;;4954990;29;20885;-59
2023/06/13 05:27:48;;;;;;;10.80;9.67;;;19.20;87.50;;;;;;4954867;28;20412;-59
2023/06/13 05:30:14;;;;;;;10.33;9.37;;;19.30;86.00;;;;;;4954197;29;20774;-59
2023/06/13 05:32:41;;;;;;;11.90;10.90;;;19.30;86.60;;;;;;4955418;29;20409;-59
2023/06/13 05:35:09;;;;;;;11.97;10.97;;;19.40;85.40;;;;;;4954865;28;20411;-59
2023/06/13 05:37:38;;;;;;;11.63;8.57;;;19.50;85.70;;;;;;4954182;28;20811;-59
2023/06/13 05:40:11;;;;;;;11.37;10.37;;;19.60;87.80;;;;;;4954562;29;20423;-59
2023/06/13 05:42:38;;;;;;;11.47;10.47;;;19.70;87.20;;;;;;4955478;29;20421;-59
2023/06/13 05:45:06;;;;;;;11.30;10.40;;;19.80;87.00;;;;;;4953796;29;20444;-59
2023/06/13 05:47:32;;;;;;;11.23;9.13;;;19.90;86.00;;;;;;4954956;28;20185;-59
2023/06/13 05:49:59;;;;;;;11.03;10.23;;;19.90;86.40;;;;;;4953214;28;20439;-59
2023/06/13 05:52:25;;;;;;;10.73;9.73;;;20.00;86.00;;;;;;4952666;29;20252;-59
2023/06/13 05:54:52;;;;;;;10.67;9.70;;;20.00;86.80;;;;;;4952469;28;20416;-59
2023/06/13 05:57:17;;;;;;;10.70;9.80;;;20.10;87.50;;;;;;4952631;28;20456;-59
2023/06/13 05:59:43;;;;;;;13.30;12.20;;;20.20;87.90;;;;;;4943093;29;20817;-59
2023/06/13 06:02:10;;;;;;;12.27;11.10;;;20.20;88.40;;;;;;4947343;29;20183;-59
2023/06/13 06:04:37;;;;;;;10.63;9.73;;;20.30;89.60;;;;;;4952777;28;20260;-59
2023/06/13 06:07:03;;;;;;;11.70;10.70;;;20.40;89.10;;;;;;4947313;28;20422;-59
2023/06/13 06:09:29;;;;;;;10.53;9.60;;;20.40;86.40;;;;;;4946925;29;20417;-61
2023/06/13 06:11:55;;;;;;;10.20;9.27;;;20.60;90.40;;;;;;4953103;29;20928;-64
2023/06/13 06:14:21;;;;;;;11.60;10.60;;;20.80;92.40;;;;;;4937766;28;20501;-61
2023/06/13 06:16:47;;;;;;;10.40;9.40;;;20.90;88.60;;;;;;4938845;29;20188;-63
2023/06/13 06:19:13;;;;;;;10.03;9.10;;;21.10;91.10;;;;;;4952281;29;20464;-63
2023/06/13 06:21:39;;;;;;;10.73;9.87;;;21.40;90.00;;;;;;4952453;29;20693;-62
2023/06/13 06:24:06;;;;;;;12.10;9.10;;;21.60;84.70;;;;;;4953701;29;20656;-62
2023/06/13 06:26:32;;;;;;;9.53;8.73;;;21.50;84.80;;;;;;4953846;29;20420;-63
2023/06/13 06:28:58;;;;;;;9.87;9.07;;;21.60;86.30;;;;;;4953439;28;20786;-63
2023/06/13 06:31:24;;;;;;;10.50;9.70;;;21.70;83.30;;;;;;4953844;29;20415;-62
2023/06/13 06:33:50;;;;;;;10.70;9.70;;;21.40;81.30;;;;;;4953759;29;20177;-67
2023/06/13 06:36:15;;;;;;;10.57;9.87;;;21.00;81.30;;;;;;4953881;29;20193;-67
2023/06/13 06:38:42;;;;;;;14.60;13.17;;;21.00;82.90;;;;;;4954475;28;20280;-67
2023/06/13 06:41:08;;;;;;;11.33;10.43;;;21.10;83.10;;;;;;4953082;28;20181;-66
2023/06/13 06:43:34;;;;;;;9.73;8.83;;;21.10;84.30;;;;;;4953238;28;20432;-66
2023/06/13 06:46:00;;;;;;;9.57;8.77;;;21.10;84.90;;;;;;4934117;29;20545;-68
2023/06/13 06:48:26;;;;;;;9.43;8.73;;;21.20;84.50;;;;;;4945301;29;20952;-66
2023/06/13 06:50:52;;;;;;;10.03;9.17;;;21.20;84.10;;;;;;4953165;29;20180;-66
2023/06/13 06:53:18;;;;;;;9.43;8.73;;;21.30;83.90;;;;;;4953078;28;20209;-67
2023/06/13 06:55:44;;;;;;;9.90;9.10;;;21.30;83.90;;;;;;4953494;29;20456;-67
2023/06/13 06:58:09;;;;;;;9.80;9.10;;;21.40;83.60;;;;;;4953674;28;20252;-65
2023/06/13 07:00:35;;;;;;;10.13;9.33;;;21.40;83.10;;;;;;4952141;29;20624;-66
2023/06/13 07:03:01;;;;;;;10.77;9.80;;;21.50;84.20;;;;;;4935073;29;20181;-66
2023/06/13 07:05:27;;;;;;;9.53;8.77;;;21.60;82.60;;;;;;4943984;29;20188;-66
2023/06/13 07:07:52;;;;;;;9.73;9.00;;;21.70;81.40;;;;;;4954210;28;20185;-66
2023/06/13 07:10:18;;;;;;;9.63;8.80;;;21.80;82.10;;;;;;4957160;29;20316;-65
2023/06/13 07:12:44;;;;;;;9.10;8.40;;;21.90;82.40;;;;;;4958187;28;20267;-65
2023/06/13 07:15:12;;;;;;;11.50;8.53;;;22.10;82.00;;;;;;4956572;29;20546;-65
2023/06/13 07:17:38;;;;;;;8.93;8.23;;;22.20;81.50;;;;;;4952000;28;20467;-66
2023/06/13 07:20:08;;;;;;;10.03;9.23;;;22.30;80.30;;;;;;4956790;28;20189;-65
2023/06/13 07:22:34;;;;;;;9.93;9.20;;;22.40;79.80;;;;;;4957459;29;20192;-63
2023/06/13 07:25:00;;;;;;;9.53;8.67;;;22.50;79.30;;;;;;4957639;28;20420;-63
2023/06/13 07:27:26;;;;;;;10.53;9.63;;;22.50;79.90;;;;;;4956946;29;20893;-63
2023/06/13 07:29:51;;;;;;;10.40;9.50;;;22.60;80.60;;;;;;4957520;29;20183;-64
2023/06/13 07:32:17;;;;;;;9.37;8.63;;;22.70;79.90;;;;;;4956661;28;20192;-63
2023/06/13 07:34:43;;;;;;;14.23;12.90;;;22.80;80.70;;;;;;4957308;28;20181;-63
2023/06/13 07:37:10;;;;;;;10.20;9.30;;;22.90;81.80;;;;;;4956483;29;20181;-62
2023/06/13 07:39:35;;;;;;;9.63;8.80;;;23.10;80.10;;;;;;4957479;28;20251;-63
2023/06/13 07:42:02;;;;;;;8.97;8.33;;;23.30;79.50;;;;;;4955547;28;20936;-64
2023/06/13 07:44:28;;;;;;;9.50;8.70;;;23.40;80.10;;;;;;4956342;28;20634;-63
2023/06/13 07:46:55;;;;;;;10.00;9.30;;;23.60;77.00;;;;;;4957203;28;20471;-63
2023/06/13 07:49:20;;;;;;;8.57;8.07;;;23.70;76.20;;;;;;4956829;28;20420;-63
2023/06/13 07:51:46;;;;;;;9.37;8.50;;;23.80;76.90;;;;;;4956586;28;20181;-63
2023/06/13 07:54:12;;;;;;;10.70;9.70;;;24.00;78.20;;;;;;4956679;29;20626;-63
2023/06/13 07:56:37;;;;;;;9.43;8.80;;;24.10;75.10;;;;;;4957066;29;20185;-64
2023/06/13 07:59:03;;;;;;;9.37;8.57;;;24.30;74.40;;;;;;4956754;29;20209;-64
2023/06/13 08:01:29;;;;;;;9.23;8.33;;;24.50;75.80;;;;;;4955221;29;20193;-64
2023/06/13 08:03:54;;;;;;;7.90;7.40;;;24.60;73.10;;;;;;4957069;29;20176;-64
2023/06/13 08:06:20;;;;;;;8.70;8.00;;;24.70;72.50;;;;;;4956647;29;20188;-63
2023/06/13 08:08:46;;;;;;;9.03;8.33;;;24.80;70.70;;;;;;4957033;29;20176;-64
2023/06/13 08:11:12;;;;;;;9.40;8.67;;;25.00;71.20;;;;;;4955531;29;20173;-63
2023/06/13 08:13:37;;;;;;;8.70;8.10;;;25.10;70.30;;;;;;4955224;28;20189;-63
2023/06/13 08:16:03;;;;;;;8.80;8.00;;;25.10;68.70;;;;;;4953594;29;20192;-63
2023/06/13 08:18:30;;;;;;;8.90;8.30;;;25.20;68.70;;;;;;4954578;29;20274;-63
2023/06/13 08:20:56;;;;;;;10.23;9.33;;;25.30;70.00;;;;;;4956331;28;20409;-63
2023/06/13 08:23:21;;;;;;;9.70;9.00;;;25.30;69.80;;;;;;4956096;29;20478;-63
2023/06/13 08:25:47;;;;;;;9.10;8.37;;;25.40;69.00;;;;;;4956879;29;20180;-63
2023/06/13 08:28:13;;;;;;;9.73;9.03;;;25.60;70.10;;;;;;4956368;28;20196;-62
2023/06/13 08:30:39;;;;;;;9.67;8.80;;;25.70;69.20;;;;;;4956550;28;20565;-63
2023/06/13 08:33:08;;;;;;;9.03;8.40;;;25.80;69.40;;;;;;4956411;29;20413;-63
2023/06/13 08:35:34;;;;;;;8.50;7.87;;;25.90;67.90;;;;;;4955958;28;20180;-63
2023/06/13 08:38:00;;;;;;;8.43;7.93;;;26.00;66.10;;;;;;4956365;29;20468;-63
2023/06/13 08:40:26;;;;;;;8.57;7.93;;;26.10;66.20;;;;;;4955759;28;20248;-62
2023/06/13 08:42:52;;;;;;;8.60;8.00;;;26.20;66.60;;;;;;4956834;28;20417;-63
2023/06/13 08:45:18;;;;;;;9.07;8.47;;;26.30;64.90;;;;;;4955753;28;20228;-62
2023/06/13 08:47:46;;;;;;;8.60;8.00;;;26.40;63.60;;;;;;4955560;29;20440;-63
2023/06/13 08:50:14;;;;;;;8.67;8.07;;;26.50;64.10;;;;;;4955685;28;20428;-61
2023/06/13 08:52:41;;;;;;;9.40;8.73;;;26.50;61.70;;;;;;4956219;28;20479;-63
2023/06/13 08:55:14;;;;;;;9.57;8.87;;;26.70;62.40;;;;;;4955314;29;20440;-63
2023/06/13 08:57:41;;;;;;;9.40;8.80;;;26.70;61.80;;;;;;4956414;29;20548;-63
2023/06/13 09:00:11;;;;;;;9.70;8.20;;;26.80;61.30;;;;;;4956330;29;20439;-63
2023/06/13 09:02:43;;;;;;;8.77;8.07;;;26.80;60.50;;;;;;4955415;29;20448;-63
2023/06/13 09:05:15;;;;;;;8.97;8.37;;;26.80;58.60;;;;;;4954953;29;20802;-63
2023/06/13 09:07:42;;;;;;;9.10;8.50;;;26.90;58.60;;;;;;4955935;29;20393;-63
2023/06/13 09:10:11;;;;;;;10.40;9.40;;;26.90;60.90;;;;;;4955880;29;20417;-62
2023/06/13 09:12:41;;;;;;;8.53;7.97;;;27.00;62.60;;;;;;4955431;28;20420;-63
2023/06/13 09:15:08;;;;;;;9.37;8.67;;;27.10;60.80;;;;;;4954370;29;20436;-63
2023/06/13 09:17:34;;;;;;;8.20;7.70;;;27.10;60.00;;;;;;4954897;29;20798;-62
2023/06/13 09:20:01;;;;;;;8.53;7.93;;;27.20;60.20;;;;;;4955630;28;20412;-63
2023/06/13 09:22:27;;;;;;;8.67;8.00;;;27.30;60.10;;;;;;4955090;29;20483;-63
2023/06/13 09:24:53;;;;;;;12.50;8.07;;;27.40;57.20;;;;;;4954887;28;20432;-63
2023/06/13 09:27:21;;;;;;;8.57;7.97;;;27.40;55.30;;;;;;4954974;29;20228;-62
2023/06/13 09:29:49;;;;;;;8.20;7.50;;;27.50;58.30;;;;;;4955396;29;20456;-64
2023/06/13 09:32:15;;;;;;;8.77;8.13;;;27.50;57.90;;;;;;4954476;28;20457;-62
2023/06/13 09:34:41;;;;;;;9.07;8.37;;;27.60;58.60;;;;;;4955419;29;20429;-63
2023/06/13 09:37:08;;;;;;;8.43;7.73;;;27.70;56.20;;;;;;4954099;29;20173;-63
2023/06/13 09:39:45;;;;;;;10.23;7.70;;;27.80;55.20;;;;;;4954783;28;20416;-63
2023/06/13 09:42:10;;;;;;;8.37;7.70;;;28.00;56.60;;;;;;4955501;29;20789;-63
2023/06/13 09:44:36;;;;;;;9.20;8.40;;;28.20;56.70;;;;;;4954651;28;20461;-63
2023/06/13 09:47:02;;;;;;;8.50;7.90;;;28.30;57.70;;;;;;4955159;29;20236;-63
2023/06/13 09:49:32;;;;;;;8.67;8.07;;;28.30;53.40;;;;;;4953278;29;20653;-63
2023/06/13 09:52:02;;;;;;;10.20;9.20;;;28.50;54.80;;;;;;4955149;28;20412;-63
2023/06/13 09:54:29;;;;;;;9.47;8.87;;;28.70;54.70;;;;;;4954119;28;20436;-62
2023/06/13 09:56:56;;;;;;;8.90;8.33;;;28.70;52.90;;;;;;4953825;29;20777;-63
2023/06/13 09:59:22;;;;;;;9.60;8.60;;;28.50;51.50;;;;;;4954382;29;20453;-62
2023/06/13 10:01:48;;;;;;;9.87;9.10;;;28.50;53.50;;;;;;4954950;29;20784;-63
2023/06/13 10:04:14;;;;;;;11.00;10.20;;;28.60;55.50;;;;;;4954967;28;20454;-63
2023/06/13 10:06:41;;;;;;;10.00;9.10;;;28.60;53.20;;;;;;4954337;28;20495;-63
2023/06/13 10:09:07;;;;;;;10.10;9.40;;;28.80;53.60;;;;;;4954915;28;20416;-63
2023/06/13 10:11:34;;;;;;;11.30;10.57;;;28.80;53.10;;;;;;4954114;28;20417;-63
2023/06/13 10:14:06;;;;;;;10.23;9.50;;;28.80;53.80;;;;;;4954912;28;20654;-63
2023/06/13 10:16:39;;;;;;;9.03;8.50;;;29.00;53.40;;;;;;4954485;29;20409;-63
2023/06/13 10:19:06;;;;;;;11.50;10.73;;;29.00;52.40;;;;;;4954677;28;20809;-63
2023/06/13 10:21:36;;;;;;;9.37;8.77;;;29.10;55.30;;;;;;4954122;28;20508;-63
2023/06/13 10:24:02;;;;;;;8.87;8.27;;;29.20;53.50;;;;;;4954090;28;20431;-63
2023/06/13 10:26:40;;;;;;;9.43;8.57;;;29.10;50.60;;;;;;4953998;29;20444;-62
2023/06/13 10:29:37;;;;;;;10.30;9.50;;;29.20;54.00;;;;;;4954611;29;20416;-63
2023/06/13 10:32:24;;;;;;;11.40;10.70;;;29.30;54.80;;;;;;4954496;29;20412;-63
2023/06/13 10:35:20;;;;;;;8.83;8.23;;;29.30;53.30;;;;;;4954661;28;20405;-63
2023/06/13 10:38:14;;;;;;;9.40;8.70;;;29.40;52.50;;;;;;4953394;29;20448;-63
2023/06/13 10:40:40;;;;;;;9.23;8.43;;;29.50;53.30;;;;;;4954032;29;20401;-63
2023/06/13 10:43:19;;;;;;;9.87;9.27;;;29.60;51.50;;;;;;4956653;28;20904;-63
2023/06/13 10:45:46;;;;;;;9.27;8.67;;;29.50;50.00;;;;;;4958582;29;20312;-63
2023/06/13 10:48:12;;;;;;;9.50;8.90;;;29.50;51.30;;;;;;4958604;29;20429;-63
2023/06/13 10:50:43;;;;;;;9.50;8.67;;;29.40;51.40;;;;;;4957520;29;20408;-63
2023/06/13 10:53:29;;;;;;;9.80;9.13;;;29.40;52.40;;;;;;4957604;28;20413;-62
2023/06/13 10:56:01;;;;;;;8.93;8.23;;;29.40;50.60;;;;;;4958316;29;20771;-63
2023/06/13 10:58:28;;;;;;;9.93;9.13;;;29.30;52.40;;;;;;4957505;28;20558;-63
2023/06/13 11:00:54;;;;;;;11.70;9.07;;;29.40;54.20;;;;;;4958178;29;20448;-63
2023/06/13 11:03:28;;;;;;;8.53;7.80;;;29.40;51.80;;;;;;4958256;29;20396;-61
2023/06/13 11:05:53;;;;;;;14.53;9.23;;;29.40;54.70;;;;;;4958164;29;20193;-63
2023/06/13 11:08:26;;;;;;;9.70;9.00;;;29.50;52.00;;;;;;4957764;29;20439;-63
2023/06/13 11:10:55;;;;;;;10.23;9.43;;;29.40;51.90;;;;;;4957197;28;20188;-63
2023/06/13 11:13:26;;;;;;;10.70;9.80;;;29.40;52.90;;;;;;4957482;28;20459;-62
2023/06/13 11:16:15;;;;;;;9.27;8.37;;;29.30;50.80;;;;;;4957921;29;20762;-63
2023/06/13 11:18:52;;;;;;;9.10;8.40;;;29.30;52.00;;;;;;4957253;29;20932;-63
2023/06/13 11:21:18;;;;;;;9.43;8.83;;;29.10;48.40;;;;;;4957950;29;20396;-63
2023/06/13 11:24:04;;;;;;;8.23;7.63;;;29.00;49.60;;;;;;4957251;28;20918;-63
2023/06/13 11:26:34;;;;;;;9.53;8.63;;;29.10;51.30;;;;;;4957013;28;20404;-62
2023/06/13 11:29:01;;;;;;;9.37;8.77;;;29.10;51.20;;;;;;4957510;28;20743;-63
2023/06/13 11:31:29;;;;;;;9.90;9.17;;;29.20;52.40;;;;;;4957354;29;20415;-63
2023/06/13 11:33:59;;;;;;;9.83;9.13;;;29.20;50.40;;;;;;4957623;28;20455;-63
2023/06/13 11:36:26;;;;;;;8.90;8.30;;;29.20;49.40;;;;;;4955886;29;20801;-62
2023/06/13 11:39:03;;;;;;;8.20;7.50;;;29.20;49.00;;;;;;4957331;29;20452;-63
2023/06/13 11:41:29;;;;;;;8.67;8.10;;;29.10;47.60;;;;;;4956262;28;20494;-63
2023/06/13 11:43:56;;;;;;;9.20;8.50;;;29.10;49.10;;;;;;4957211;29;20428;-63
2023/06/13 11:46:22;;;;;;;8.63;8.03;;;29.10;47.90;;;;;;4957353;28;20412;-63
2023/06/13 11:48:54;;;;;;;8.47;7.80;;;29.20;49.40;;;;;;4957367;29;20408;-63
2023/06/13 11:51:20;;;;;;;8.60;8.00;;;29.20;47.70;;;;;;4957387;29;20401;-63
2023/06/13 11:53:57;;;;;;;8.47;7.97;;;29.10;46.90;;;;;;4956215;28;20889;-63
2023/06/13 11:56:24;;;;;;;9.23;8.63;;;29.10;48.40;;;;;;4956873;29;20254;-61
2023/06/13 11:58:54;;;;;;;8.70;8.20;;;29.20;52.70;;;;;;4955822;29;20547;-63
2023/06/13 12:01:23;;;;;;;8.57;7.97;;;29.20;48.90;;;;;;4957151;29;20424;-63
2023/06/13 12:03:49;;;;;;;8.13;7.43;;;29.30;49.20;;;;;;4957004;28;20405;-63
2023/06/13 12:06:16;;;;;;;8.00;7.30;;;29.30;50.00;;;;;;4957142;28;20811;-63
2023/06/13 12:08:47;;;;;;;8.47;7.80;;;29.30;47.80;;;;;;4956407;29;20413;-63
2023/06/13 12:11:16;;;;;;;9.03;8.37;;;29.30;47.80;;;;;;4956295;28;20432;-63
2023/06/13 12:13:55;;;;;;;8.47;7.87;;;29.40;48.00;;;;;;4956345;29;20421;-63
2023/06/13 12:16:23;;;;;;;8.20;7.70;;;29.40;49.00;;;;;;4956811;29;20510;-63
2023/06/13 12:18:54;;;;;;;7.67;7.17;;;29.40;48.20;;;;;;4956505;28;20479;-63
2023/06/13 12:21:31;;;;;;;8.67;7.87;;;29.30;49.20;;;;;;4956817;29;20499;-63
2023/06/13 12:23:58;;;;;;;8.10;7.60;;;29.40;48.50;;;;;;4956778;29;20515;-63
2023/06/13 12:26:30;;;;;;;8.83;8.23;;;29.40;46.40;;;;;;4956581;29;20443;-61
2023/06/13 12:29:04;;;;;;;9.33;8.57;;;29.40;47.50;;;;;;4956700;29;20405;-63
2023/06/13 12:31:36;;;;;;;9.07;8.47;;;29.40;49.00;;;;;;4954914;29;20401;-63
2023/06/13 12:34:06;;;;;;;8.63;7.77;;;29.30;46.60;;;;;;4955824;29;20409;-62
2023/06/13 12:36:44;;;;;;;9.47;8.87;;;29.30;47.40;;;;;;4955944;28;20824;-62
2023/06/13 12:39:14;;;;;;;8.73;8.13;;;29.30;47.30;;;;;;4956220;28;20481;-63
2023/06/13 12:41:51;;;;;;;9.60;8.70;;;29.30;49.00;;;;;;4955990;28;20512;-63
2023/06/13 12:44:20;;;;;;;8.60;8.10;;;29.30;47.20;;;;;;4956103;29;20468;-63
2023/06/13 12:46:46;;;;;;;8.60;8.00;;;29.00;47.90;;;;;;4955683;28;20865;-63
2023/06/13 12:49:15;;;;;;;9.47;8.47;;;29.00;47.20;;;;;;4956374;29;20924;-63